createdAt,value
2017-08-27T00:01:39.031Z,30.27
2017-08-27T00:04:06.439Z,32.77
2017-08-27T00:06:33.850Z,31.63
2017-08-27T00:09:01.254Z,30.40
2017-08-27T00:11:28.670Z,29.80
2017-08-27T00:13:56.114Z,32.73
2017-08-27T00:16:23.510Z,32.03
2017-08-27T00:18:50.914Z,28.50
2017-08-27T00:21:18.359Z,29.80
2017-08-27T00:23:45.770Z,29.47
2017-08-27T00:26:13.171Z,32.17
2017-08-27T00:28:40.731Z,35.03
2017-08-27T00:31:08.131Z,33.73
2017-08-27T00:33:35.544Z,32.80
2017-08-27T00:36:03.348Z,30.50
2017-08-27T00:38:30.740Z,32.03
2017-08-27T00:40:58.139Z,31.00
2017-08-27T00:43:25.907Z,31.57
2017-08-27T00:45:53.306Z,33.97
2017-08-27T00:48:20.703Z,33.53
2017-08-27T00:50:48.264Z,35.13
2017-08-27T00:53:15.660Z,34.63
2017-08-27T00:55:43.054Z,30.87
2017-08-27T00:58:10.494Z,31.57
2017-08-27T01:00:37.907Z,32.73
2017-08-27T01:03:05.306Z,33.73
2017-08-27T01:05:32.867Z,34.47
2017-08-27T01:08:00.267Z,34.97
2017-08-27T01:10:28.516Z,33.90
2017-08-27T01:12:55.958Z,37.33
2017-08-27T01:15:23.414Z,33.40
2017-08-27T01:17:50.812Z,35.23
2017-08-27T01:20:18.587Z,35.87
2017-08-27T01:22:45.989Z,31.87
2017-08-27T01:25:13.382Z,31.10
2017-08-27T01:27:40.826Z,33.33
2017-08-27T01:30:08.227Z,32.23
2017-08-27T01:32:35.634Z,31.00
2017-08-27T01:35:03.201Z,33.30
2017-08-27T01:37:30.598Z,34.53
2017-08-27T01:39:58.002Z,37.30
2017-08-27T01:42:25.411Z,33.23
2017-08-27T01:44:52.811Z,31.80
2017-08-27T01:47:20.214Z,36.87
2017-08-27T01:49:47.659Z,33.77
2017-08-27T01:52:15.083Z,31.60
2017-08-27T01:54:42.478Z,35.77
2017-08-27T01:57:10.242Z,36.37
2017-08-27T01:59:37.643Z,35.87
2017-08-27T02:02:05.052Z,35.47
2017-08-27T02:04:32.491Z,34.50
2017-08-27T02:06:59.894Z,38.97
2017-08-27T02:09:27.306Z,40.23
2017-08-27T02:11:54.735Z,37.50
2017-08-27T02:14:22.127Z,35.23
2017-08-27T02:16:49.528Z,37.93
2017-08-27T02:19:16.970Z,36.40
2017-08-27T02:21:44.374Z,32.40
2017-08-27T02:24:11.775Z,35.63
2017-08-27T02:26:39.298Z,36.77
2017-08-27T02:29:06.691Z,36.37
2017-08-27T02:31:34.087Z,32.40
2017-08-27T02:34:01.639Z,34.63
2017-08-27T02:36:29.039Z,32.43
2017-08-27T02:38:56.446Z,29.93
2017-08-27T02:41:23.959Z,34.93
2017-08-27T02:43:51.361Z,36.27
2017-08-27T02:46:18.765Z,31.73
2017-08-27T02:48:46.211Z,32.40
2017-08-27T02:51:13.611Z,31.97
2017-08-27T02:53:41.016Z,32.60
2017-08-27T02:56:08.484Z,30.30
2017-08-27T02:58:35.895Z,32.97
2017-08-27T03:01:04.199Z,30.90
2017-08-27T03:03:31.670Z,31.40
2017-08-27T03:05:59.067Z,35.47
2017-08-27T03:08:26.491Z,31.87
2017-08-27T03:10:53.947Z,32.87
2017-08-27T03:13:21.342Z,33.27
2017-08-27T03:15:48.747Z,34.70
2017-08-27T03:18:16.167Z,33.33
2017-08-27T03:20:43.578Z,37.47
2017-08-27T03:23:10.998Z,37.17
2017-08-27T03:25:38.553Z,32.30
2017-08-27T03:28:05.958Z,32.40
2017-08-27T03:30:33.360Z,36.53
2017-08-27T03:33:00.926Z,33.67
2017-08-27T03:35:28.327Z,34.17
2017-08-27T03:37:55.722Z,33.47
2017-08-27T03:40:23.227Z,31.80
2017-08-27T03:42:50.623Z,33.93
2017-08-27T03:45:18.019Z,34.43
2017-08-27T03:47:45.427Z,37.33
2017-08-27T03:50:12.826Z,38.57
2017-08-27T03:52:40.218Z,37.00
2017-08-27T03:55:07.662Z,35.67
2017-08-27T03:57:35.059Z,35.63
2017-08-27T04:00:02.458Z,34.17
2017-08-27T04:02:30.370Z,33.80
2017-08-27T04:04:57.774Z,32.83
2017-08-27T04:07:25.171Z,31.80
2017-08-27T04:09:52.610Z,37.37
2017-08-27T04:12:20.011Z,36.37
2017-08-27T04:14:47.402Z,33.67
2017-08-27T04:17:14.962Z,34.83
2017-08-27T04:19:42.371Z,34.50
2017-08-27T04:22:09.775Z,33.87
2017-08-27T04:24:37.284Z,34.93
2017-08-27T04:27:04.682Z,34.97
2017-08-27T04:29:32.079Z,33.17
2017-08-27T04:31:59.495Z,35.80
2017-08-27T04:34:26.915Z,33.73
2017-08-27T04:36:54.318Z,36.67
2017-08-27T04:39:21.868Z,32.50
2017-08-27T04:41:49.264Z,35.17
2017-08-27T04:44:16.659Z,33.90
2017-08-27T04:46:44.166Z,36.03
2017-08-27T04:49:11.565Z,35.93
2017-08-27T04:51:38.969Z,38.70
2017-08-27T04:54:06.395Z,34.80
2017-08-27T04:56:33.798Z,38.73
2017-08-27T04:59:01.194Z,34.03
2017-08-27T05:01:28.766Z,36.60
2017-08-27T05:03:56.164Z,32.93
2017-08-27T05:06:24.586Z,33.80
2017-08-27T05:08:53.001Z,37.07
2017-08-27T05:11:21.123Z,33.10
2017-08-27T05:13:48.551Z,31.00
2017-08-27T05:16:16.107Z,32.47
2017-08-27T05:18:43.503Z,33.73
2017-08-27T05:21:10.902Z,32.90
2017-08-27T05:23:38.667Z,35.27
2017-08-27T05:26:06.107Z,31.43
2017-08-27T05:28:33.506Z,32.10
2017-08-27T05:31:01.063Z,30.17
2017-08-27T05:33:28.485Z,28.97
2017-08-27T05:35:55.879Z,31.73
2017-08-27T05:38:23.311Z,31.60
2017-08-27T05:40:50.727Z,28.47
2017-08-27T05:43:18.137Z,28.50
2017-08-27T05:45:45.679Z,34.33
2017-08-27T05:48:13.093Z,32.73
2017-08-27T05:50:40.478Z,29.50
2017-08-27T05:53:08.038Z,32.07
2017-08-27T05:55:35.431Z,34.07
2017-08-27T05:58:02.846Z,29.60
2017-08-27T06:00:30.292Z,31.27
2017-08-27T06:02:57.694Z,30.97
2017-08-27T06:05:25.091Z,30.67
2017-08-27T06:07:52.644Z,30.83
2017-08-27T06:10:20.035Z,34.27
2017-08-27T06:12:47.432Z,35.10
2017-08-27T06:15:14.834Z,36.33
2017-08-27T06:17:42.231Z,35.90
2017-08-27T06:20:09.634Z,39.03
2017-08-27T06:22:37.186Z,42.10
2017-08-27T06:25:04.578Z,43.10
2017-08-27T06:27:31.987Z,40.83
2017-08-27T06:29:59.539Z,51.33
2017-08-27T06:32:26.944Z,48.20
2017-08-27T06:34:54.354Z,48.50
2017-08-27T06:37:21.778Z,45.80
2017-08-27T06:39:49.184Z,43.97
2017-08-27T06:42:16.579Z,50.70
2017-08-27T06:44:44.145Z,49.27
2017-08-27T06:47:11.544Z,52.20
2017-08-27T06:49:38.954Z,53.20
2017-08-27T06:52:06.466Z,59.63
2017-08-27T06:54:33.862Z,61.03
2017-08-27T06:57:01.263Z,60.47
2017-08-27T06:59:28.694Z,56.03
2017-08-27T07:01:56.099Z,64.20
2017-08-27T07:04:23.497Z,57.80
2017-08-27T07:06:50.934Z,58.77
2017-08-27T07:09:18.339Z,58.00
2017-08-27T07:11:45.754Z,57.23
2017-08-27T07:14:13.683Z,62.13
2017-08-27T07:16:41.088Z,61.17
2017-08-27T07:19:08.506Z,62.07
2017-08-27T07:21:36.063Z,62.93
2017-08-27T07:24:03.472Z,61.30
2017-08-27T07:26:30.866Z,59.33
2017-08-27T07:28:58.311Z,46.30
2017-08-27T07:31:25.706Z,49.50
2017-08-27T07:33:53.105Z,45.33
2017-08-27T07:36:20.650Z,55.17
2017-08-27T07:38:48.047Z,45.07
2017-08-27T07:41:15.443Z,53.03
2017-08-27T07:43:42.864Z,51.00
2017-08-27T07:46:10.258Z,52.67
2017-08-27T07:48:37.655Z,50.57
2017-08-27T07:51:05.204Z,54.77
2017-08-27T07:53:32.598Z,57.70
2017-08-27T07:55:59.994Z,56.50
2017-08-27T07:58:27.414Z,57.77
2017-08-27T08:00:54.810Z,55.00
2017-08-27T08:03:22.212Z,55.23
2017-08-27T08:05:49.724Z,61.10
2017-08-27T08:08:17.114Z,56.83
2017-08-27T08:10:44.516Z,56.93
2017-08-27T08:13:12.364Z,53.97
2017-08-27T08:15:39.760Z,53.13
2017-08-27T08:18:07.155Z,51.67
2017-08-27T08:20:34.662Z,56.97
2017-08-27T08:23:03.070Z,54.03
2017-08-27T08:25:30.467Z,53.17
2017-08-27T08:27:58.051Z,50.53
2017-08-27T08:30:25.446Z,46.00
2017-08-27T08:32:52.851Z,52.13
2017-08-27T08:35:20.599Z,51.07
2017-08-27T08:37:47.991Z,49.80
2017-08-27T08:40:15.390Z,46.07
2017-08-27T08:42:42.814Z,50.43
2017-08-27T08:45:10.227Z,48.40
2017-08-27T08:47:37.627Z,48.53
2017-08-27T08:50:05.171Z,43.77
2017-08-27T08:52:32.574Z,46.07
2017-08-27T08:54:59.976Z,40.37
2017-08-27T08:57:27.414Z,41.13
2017-08-27T08:59:54.807Z,43.70
2017-08-27T09:02:22.202Z,42.13
2017-08-27T09:04:49.616Z,39.00
2017-08-27T09:07:17.010Z,36.77
2017-08-27T09:09:44.614Z,35.47
2017-08-27T09:12:12.159Z,32.87
2017-08-27T09:14:39.579Z,34.23
2017-08-27T09:17:06.975Z,35.30
2017-08-27T09:19:34.730Z,32.57
2017-08-27T09:22:02.127Z,34.47
2017-08-27T09:24:29.523Z,29.90
2017-08-27T09:26:56.943Z,30.03
2017-08-27T09:29:24.334Z,28.87
2017-08-27T09:31:51.730Z,30.93
2017-08-27T09:34:19.174Z,30.57
2017-08-27T09:36:46.570Z,29.77
2017-08-27T09:39:13.966Z,28.43
2017-08-27T09:41:41.555Z,29.93
2017-08-27T09:44:08.955Z,28.60
2017-08-27T09:46:36.354Z,28.47
2017-08-27T09:49:04.595Z,30.60
2017-08-27T09:51:31.982Z,26.93
2017-08-27T09:53:59.411Z,27.33
2017-08-27T09:56:26.958Z,22.73
2017-08-27T09:58:54.356Z,26.00
2017-08-27T10:01:21.751Z,27.73
2017-08-27T10:03:49.267Z,26.80
2017-08-27T10:06:16.658Z,23.67
2017-08-27T10:08:44.067Z,25.40
2017-08-27T10:11:11.507Z,27.50
2017-08-27T10:13:38.982Z,22.63
2017-08-27T10:16:06.379Z,26.70
2017-08-27T10:18:33.807Z,24.90
2017-08-27T10:21:01.208Z,26.17
2017-08-27T10:23:28.617Z,25.40
2017-08-27T10:25:56.034Z,25.33
2017-08-27T10:28:23.435Z,25.47
2017-08-27T10:30:50.831Z,24.10
2017-08-27T10:33:18.256Z,22.30
2017-08-27T10:35:45.646Z,23.77
2017-08-27T10:38:13.048Z,24.23
2017-08-27T10:40:40.590Z,25.33
2017-08-27T10:43:08.756Z,22.67
2017-08-27T10:45:36.176Z,22.00
2017-08-27T10:48:03.927Z,24.90
2017-08-27T10:50:31.331Z,22.07
2017-08-27T10:52:58.718Z,22.97
2017-08-27T10:55:26.234Z,22.60
2017-08-27T10:57:53.635Z,21.63
2017-08-27T11:00:21.032Z,21.67
2017-08-27T11:02:48.437Z,22.70
2017-08-27T11:05:15.838Z,23.17
2017-08-27T11:07:43.238Z,21.03
2017-08-27T11:10:11.126Z,19.60
2017-08-27T11:12:38.527Z,19.07
2017-08-27T11:15:05.918Z,17.43
2017-08-27T11:17:33.712Z,18.60
2017-08-27T11:20:01.118Z,17.57
2017-08-27T11:22:28.519Z,17.53
2017-08-27T11:24:55.959Z,18.40
2017-08-27T11:27:23.390Z,19.13
2017-08-27T11:29:50.754Z,17.10
2017-08-27T11:32:18.302Z,18.43
2017-08-27T11:34:45.703Z,16.60
2017-08-27T11:37:13.103Z,17.33
2017-08-27T11:39:40.551Z,16.70
2017-08-27T11:42:07.955Z,17.30
2017-08-27T11:44:35.351Z,17.63
2017-08-27T11:47:02.903Z,16.30
2017-08-27T11:49:30.302Z,16.27
2017-08-27T11:51:57.690Z,17.80
2017-08-27T11:54:25.448Z,16.17
2017-08-27T11:56:52.847Z,16.77
2017-08-27T11:59:20.249Z,15.90
2017-08-27T12:01:47.698Z,17.13
2017-08-27T12:04:15.100Z,17.27
2017-08-27T12:06:42.495Z,15.40
2017-08-27T12:09:10.003Z,15.90
2017-08-27T12:11:37.400Z,17.00
2017-08-27T12:14:04.806Z,16.40
2017-08-27T12:16:32.692Z,18.10
2017-08-27T12:19:00.092Z,17.30
2017-08-27T12:21:27.486Z,17.30
2017-08-27T12:23:55.002Z,17.67
2017-08-27T12:26:22.408Z,15.50
2017-08-27T12:28:49.794Z,16.30
2017-08-27T12:31:17.935Z,15.07
2017-08-27T12:33:45.822Z,16.37
2017-08-27T12:36:13.214Z,17.07
2017-08-27T12:38:40.655Z,17.90
2017-08-27T12:41:08.058Z,15.77
2017-08-27T12:43:35.463Z,18.10
2017-08-27T12:46:03.590Z,15.13
2017-08-27T12:48:30.990Z,16.83
2017-08-27T12:50:59.098Z,15.10
2017-08-27T12:53:26.658Z,15.40
2017-08-27T12:55:54.436Z,15.40
2017-08-27T12:58:22.378Z,16.37
2017-08-27T13:00:50.671Z,16.90
2017-08-27T13:03:18.092Z,16.53
2017-08-27T13:05:45.483Z,16.67
2017-08-27T13:08:12.899Z,15.43
2017-08-27T13:10:40.290Z,14.57
2017-08-27T13:13:07.690Z,15.07
2017-08-27T13:15:35.134Z,15.97
2017-08-27T13:18:02.550Z,15.70
2017-08-27T13:20:29.950Z,15.80
2017-08-27T13:22:57.459Z,15.80
2017-08-27T13:25:24.854Z,16.10
2017-08-27T13:27:52.271Z,15.43
2017-08-27T13:30:19.679Z,15.50
2017-08-27T13:32:47.074Z,13.83
2017-08-27T13:35:14.471Z,14.20
2017-08-27T13:37:42.024Z,15.00
2017-08-27T13:40:09.423Z,14.67
2017-08-27T13:42:36.818Z,14.80
2017-08-27T13:45:04.655Z,14.30
2017-08-27T13:47:32.063Z,15.13
2017-08-27T13:49:59.464Z,14.80
2017-08-27T13:52:27.215Z,14.80
2017-08-27T13:54:54.619Z,12.80
2017-08-27T13:57:22.014Z,14.77
2017-08-27T13:59:49.576Z,12.90
2017-08-27T14:02:16.988Z,12.77
2017-08-27T14:04:44.386Z,14.50
2017-08-27T14:07:11.810Z,14.07
2017-08-27T14:09:39.211Z,14.43
2017-08-27T14:12:06.608Z,14.83
2017-08-27T14:14:34.546Z,14.33
2017-08-27T14:17:01.949Z,14.83
2017-08-27T14:19:29.364Z,14.50
2017-08-27T14:21:57.123Z,14.30
2017-08-27T14:24:24.519Z,16.73
2017-08-27T14:26:51.931Z,13.93
2017-08-27T14:29:19.350Z,14.17
2017-08-27T14:31:46.751Z,14.87
2017-08-27T14:34:14.146Z,14.13
2017-08-27T14:36:41.699Z,15.90
2017-08-27T14:39:09.101Z,13.30
2017-08-27T14:41:36.499Z,14.60
2017-08-27T14:44:04.003Z,14.87
2017-08-27T14:46:31.405Z,14.17
2017-08-27T14:48:58.795Z,16.97
2017-08-27T14:51:26.344Z,13.37
2017-08-27T14:53:53.763Z,15.50
2017-08-27T14:56:21.162Z,16.90
2017-08-27T14:58:48.581Z,15.27
2017-08-27T15:01:15.983Z,17.13
2017-08-27T15:03:43.390Z,14.53
2017-08-27T15:06:10.902Z,16.17
2017-08-27T15:08:38.303Z,13.27
2017-08-27T15:11:05.699Z,13.17
2017-08-27T15:13:33.514Z,13.77
2017-08-27T15:16:00.920Z,14.07
2017-08-27T15:18:28.322Z,13.50
2017-08-27T15:20:55.878Z,12.57
2017-08-27T15:23:23.279Z,11.70
2017-08-27T15:25:50.675Z,12.83
2017-08-27T15:28:18.227Z,13.37
2017-08-27T15:30:45.623Z,14.17
2017-08-27T15:33:13.024Z,13.63
2017-08-27T15:35:41.782Z,13.50
2017-08-27T15:38:09.178Z,14.00
2017-08-27T15:40:36.582Z,13.70
2017-08-27T15:43:04.122Z,12.47
2017-08-27T15:45:31.531Z,12.70
2017-08-27T15:47:58.922Z,13.60
2017-08-27T15:50:26.331Z,14.83
2017-08-27T15:52:53.731Z,14.70
2017-08-27T15:55:21.126Z,13.33
2017-08-27T15:57:48.577Z,12.83
2017-08-27T16:00:15.986Z,14.60
2017-08-27T16:02:43.442Z,13.00
2017-08-27T16:05:11.028Z,12.37
2017-08-27T16:07:38.419Z,13.40
2017-08-27T16:10:05.847Z,13.60
2017-08-27T16:12:33.314Z,11.40
2017-08-27T16:15:00.711Z,12.83
2017-08-27T16:17:28.118Z,12.00
2017-08-27T16:19:55.633Z,12.83
2017-08-27T16:22:23.035Z,11.90
2017-08-27T16:24:50.435Z,11.70
2017-08-27T16:27:17.992Z,12.10
2017-08-27T16:29:45.407Z,12.37
2017-08-27T16:32:12.874Z,12.60
2017-08-27T16:34:40.288Z,12.53
2017-08-27T16:37:07.698Z,12.63
2017-08-27T16:39:35.091Z,13.40
2017-08-27T16:42:02.945Z,12.87
2017-08-27T16:44:30.741Z,12.30
2017-08-27T16:47:10.131Z,13.70
2017-08-27T16:49:37.536Z,13.27
2017-08-27T16:52:04.936Z,12.60
2017-08-27T16:54:32.479Z,11.90
2017-08-27T16:56:59.883Z,12.77
2017-08-27T16:59:27.270Z,13.13
2017-08-27T17:01:54.819Z,13.30
2017-08-27T17:04:22.286Z,13.07
2017-08-27T17:06:49.683Z,12.90
2017-08-27T17:09:17.096Z,13.13
2017-08-27T17:11:44.491Z,13.57
2017-08-27T17:14:12.027Z,14.87
2017-08-27T17:16:39.476Z,12.77
2017-08-27T17:19:06.875Z,12.80
2017-08-27T17:21:34.271Z,12.77
2017-08-27T17:24:12.347Z,12.57
2017-08-27T17:26:39.772Z,13.63
2017-08-27T17:29:07.171Z,14.50
2017-08-27T17:31:34.870Z,13.60
2017-08-27T17:34:05.443Z,13.07
2017-08-27T17:36:32.876Z,13.40
2017-08-27T17:39:00.431Z,12.67
2017-08-27T17:41:27.841Z,13.30
2017-08-27T17:43:55.256Z,13.00
2017-08-27T17:46:22.812Z,12.70
2017-08-27T17:48:50.232Z,12.00
2017-08-27T17:51:17.649Z,11.93
2017-08-27T17:53:45.953Z,12.57
2017-08-27T17:56:14.227Z,13.53
2017-08-27T17:58:41.636Z,12.53
2017-08-27T18:01:09.434Z,11.73
2017-08-27T18:03:36.883Z,13.50
2017-08-27T18:06:04.300Z,13.77
2017-08-27T18:08:31.814Z,15.30
2017-08-27T18:10:59.224Z,14.63
2017-08-27T18:13:26.622Z,13.10
2017-08-27T18:15:54.177Z,12.37
2017-08-27T18:18:21.567Z,14.13
2017-08-27T18:20:48.964Z,14.67
2017-08-27T18:23:16.520Z,14.17
2017-08-27T18:25:43.914Z,12.07
2017-08-27T18:28:11.311Z,15.20
2017-08-27T18:30:38.864Z,13.57
2017-08-27T18:33:06.269Z,14.90
2017-08-27T18:35:34.095Z,12.83
2017-08-27T18:38:02.418Z,13.13
2017-08-27T18:40:29.821Z,14.27
2017-08-27T18:42:57.347Z,12.03
2017-08-27T18:45:24.895Z,13.80
2017-08-27T18:47:52.304Z,12.93
2017-08-27T18:50:19.717Z,12.97
2017-08-27T18:52:47.163Z,12.83
2017-08-27T18:55:14.559Z,12.60
2017-08-27T18:57:42.020Z,13.20
2017-08-27T19:00:09.439Z,13.00
2017-08-27T19:02:36.839Z,13.13
2017-08-27T19:05:04.243Z,12.73
2017-08-27T19:07:31.808Z,12.87
2017-08-27T19:09:59.227Z,12.83
2017-08-27T19:12:26.652Z,12.50
2017-08-27T19:14:54.078Z,12.37
2017-08-27T19:17:21.475Z,11.80
2017-08-27T19:19:48.875Z,11.63
2017-08-27T19:22:16.291Z,14.77
2017-08-27T19:24:43.714Z,12.60
2017-08-27T19:27:11.118Z,12.10
2017-08-27T19:29:38.670Z,12.87
2017-08-27T19:32:06.076Z,12.20
2017-08-27T19:34:33.470Z,12.97
2017-08-27T19:37:01.031Z,12.33
2017-08-27T19:39:28.428Z,12.47
2017-08-27T19:41:55.823Z,14.67
2017-08-27T19:44:23.246Z,12.37
2017-08-27T19:46:50.648Z,13.13
2017-08-27T19:49:18.039Z,11.97
2017-08-27T19:51:45.492Z,13.30
2017-08-27T19:54:12.887Z,12.20
2017-08-27T19:56:40.289Z,11.63
2017-08-27T19:59:07.717Z,12.27
2017-08-27T20:01:35.346Z,11.90
2017-08-27T20:04:02.750Z,11.17
2017-08-27T20:06:30.160Z,12.90
2017-08-27T20:08:57.558Z,12.57
2017-08-27T20:11:24.960Z,12.63
2017-08-27T20:13:52.385Z,12.73
2017-08-27T20:16:19.782Z,13.00
2017-08-27T20:18:47.178Z,11.97
2017-08-27T20:21:14.734Z,13.23
2017-08-27T20:23:42.127Z,12.00
2017-08-27T20:26:09.524Z,11.77
2017-08-27T20:28:37.074Z,12.37
2017-08-27T20:31:04.480Z,12.77
2017-08-27T20:33:31.874Z,12.50
2017-08-27T20:35:59.430Z,13.07
2017-08-27T20:38:26.826Z,11.83
2017-08-27T20:40:54.447Z,13.43
2017-08-27T20:43:21.999Z,12.30
2017-08-27T20:45:49.393Z,12.37
2017-08-27T20:48:16.786Z,12.23
2017-08-27T20:50:44.343Z,12.80
2017-08-27T20:53:11.754Z,13.00
2017-08-27T20:55:39.155Z,12.63
2017-08-27T20:58:06.716Z,13.10
2017-08-27T21:00:34.112Z,12.83
2017-08-27T21:03:01.499Z,13.50
2017-08-27T21:05:29.056Z,13.20
2017-08-27T21:07:56.451Z,12.20
2017-08-27T21:10:23.847Z,13.83
2017-08-27T21:12:51.400Z,12.83
2017-08-27T21:15:18.796Z,14.13
2017-08-27T21:17:46.188Z,14.97
2017-08-27T21:20:13.691Z,13.67
2017-08-27T21:22:41.091Z,13.77
2017-08-27T21:25:08.483Z,14.60
2017-08-27T21:27:36.034Z,14.43
2017-08-27T21:30:03.436Z,13.50
2017-08-27T21:32:30.830Z,12.93
2017-08-27T21:34:58.267Z,13.30
2017-08-27T21:37:25.662Z,14.53
2017-08-27T21:39:53.059Z,14.27
2017-08-27T21:42:20.567Z,12.63
2017-08-27T21:44:47.966Z,12.97
2017-08-27T21:47:15.358Z,13.80
2017-08-27T21:49:43.098Z,13.53
2017-08-27T21:52:10.493Z,13.33
2017-08-27T21:54:37.895Z,14.57
2017-08-27T21:57:05.322Z,13.60
2017-08-27T21:59:32.712Z,13.90
2017-08-27T22:02:00.114Z,14.10
2017-08-27T22:04:27.999Z,13.37
2017-08-27T22:06:55.396Z,13.97
2017-08-27T22:09:22.790Z,13.30
2017-08-27T22:11:50.343Z,13.97
2017-08-27T22:14:17.743Z,13.03
2017-08-27T22:16:45.135Z,12.63
2017-08-27T22:19:12.689Z,13.97
2017-08-27T22:21:40.087Z,12.57
2017-08-27T22:24:07.490Z,13.10
2017-08-27T22:26:35.048Z,13.37
2017-08-27T22:29:02.451Z,12.60
2017-08-27T22:31:29.854Z,13.63
2017-08-27T22:33:57.402Z,13.40
2017-08-27T22:36:24.803Z,14.00
2017-08-27T22:38:52.202Z,13.37
2017-08-27T22:41:19.754Z,12.97
2017-08-27T22:43:47.151Z,13.20
2017-08-27T22:46:14.547Z,14.00
2017-08-27T22:48:42.090Z,14.07
2017-08-27T22:51:09.504Z,14.07
2017-08-27T22:53:36.943Z,13.17
2017-08-27T22:56:04.352Z,13.37
2017-08-27T22:58:31.746Z,14.10
2017-08-27T23:00:59.146Z,13.90
2017-08-27T23:03:26.554Z,14.93
2017-08-27T23:05:53.946Z,14.13
2017-08-27T23:08:21.349Z,13.43
2017-08-27T23:10:48.898Z,13.47
2017-08-27T23:13:16.298Z,15.20
2017-08-27T23:15:43.691Z,14.00
2017-08-27T23:18:11.134Z,14.17
2017-08-27T23:20:38.539Z,14.50
2017-08-27T23:23:05.935Z,14.37
2017-08-27T23:25:33.491Z,13.90
2017-08-27T23:28:00.890Z,14.97
2017-08-27T23:30:28.299Z,14.80
2017-08-27T23:32:55.723Z,13.47
2017-08-27T23:35:23.127Z,15.07
2017-08-27T23:37:50.538Z,15.10
2017-08-27T23:40:17.994Z,14.30
2017-08-27T23:42:45.390Z,14.73
2017-08-27T23:45:12.783Z,13.60
2017-08-27T23:47:40.188Z,15.57
2017-08-27T23:50:07.587Z,13.43
2017-08-27T23:52:34.978Z,14.10
2017-08-27T23:55:03.390Z,14.60
2017-08-27T23:57:30.787Z,14.87
2017-08-27T23:59:58.183Z,13.43
